Time;durP1;ratioP1;P1;durP2;ratioP2;P2;SDS_P1;SDS_P2;PMS_P1;PMS_P2;Temp;Humidity;BMP_temperature;BMP_pressure;BME280_temperature;BME280_humidity;BME280_pressure;Samples;Min_cycle;Max_cycle;Signal;HPM_P1;HPM_P2
2022/06/14 00:00:53;;;;;;;2.35;0.90;;;20.60;55.60;;;;;;5111918;27;20101;-70
2022/06/14 00:02:25;;;;;;;2.00;0.90;;;20.60;55.60;;;;;;5107670;28;20052;-69
2022/06/14 00:04:52;;;;;;;1.20;0.90;;;20.40;58.80;;;;;;5108627;28;20051;-70
2022/06/14 00:07:19;;;;;;;2.13;0.98;;;20.50;59.50;;;;;;5109631;28;20452;-69
2022/06/14 00:09:45;;;;;;;1.65;0.90;;;20.60;59.30;;;;;;5108417;28;20047;-69
2022/06/14 00:12:13;;;;;;;2.50;1.10;;;19.40;58.00;;;;;;5109853;28;20058;-69
2022/06/14 00:14:40;;;;;;;3.15;1.08;;;20.50;60.00;;;;;;5105913;28;20051;-70
2022/06/14 00:17:07;;;;;;;1.80;1.00;;;20.50;55.70;;;;;;5088074;28;20054;-70
2022/06/14 00:19:35;;;;;;;2.65;1.10;;;20.50;55.60;;;;;;5088116;28;20071;-70
2022/06/14 00:22:03;;;;;;;2.13;1.05;;;20.50;55.70;;;;;;5088086;28;20055;-69
2022/06/14 00:24:30;;;;;;;2.67;1.17;;;20.40;55.60;;;;;;5093331;28;20139;-69
2022/06/14 00:26:57;;;;;;;3.00;1.00;;;20.40;59.10;;;;;;5109187;28;20118;-70
2022/06/14 00:29:24;;;;;;;1.73;0.95;;;20.40;55.60;;;;;;5108310;28;20531;-70
2022/06/14 00:31:50;;;;;;;1.92;0.95;;;20.80;59.80;;;;;;5100819;28;20074;-70
2022/06/14 00:34:17;;;;;;;3.45;1.40;;;20.30;59.40;;;;;;5107624;28;20054;-70
2022/06/14 00:36:52;;;;;;;2.10;1.10;;;20.30;59.30;;;;;;5109250;28;20383;-70
2022/06/14 00:39:19;;;;;;;3.20;1.20;;;19.80;59.20;;;;;;5108153;28;20059;-70
2022/06/14 00:41:47;;;;;;;2.60;1.20;;;20.30;55.60;;;;;;5108218;28;20051;-70
2022/06/14 00:44:15;;;;;;;1.15;0.80;;;20.30;60.70;;;;;;5107923;28;20063;-70
2022/06/14 00:46:44;;;;;;;3.08;1.10;;;20.30;55.70;;;;;;5107865;28;20469;-69
2022/06/14 00:49:15;;;;;;;1.98;1.02;;;20.40;58.90;;;;;;5091419;28;20058;-70
2022/06/14 00:51:46;;;;;;;1.60;0.93;;;20.30;55.70;;;;;;5088626;28;20044;-69
2022/06/14 00:54:16;;;;;;;2.65;1.10;;;20.20;58.70;;;;;;5087051;28;20044;-70
2022/06/14 00:56:46;;;;;;;1.98;0.98;;;20.30;55.70;;;;;;5089042;28;20127;-70
2022/06/14 00:59:15;;;;;;;1.92;1.08;;;20.30;59.80;;;;;;5087414;28;20501;-70
2022/06/14 01:01:43;;;;;;;2.00;1.10;;;20.20;55.70;;;;;;5094201;28;20138;-70
2022/06/14 01:04:12;;;;;;;2.42;1.00;;;20.20;55.70;;;;;;5108676;28;20070;-70
2022/06/14 01:06:44;;;;;;;2.13;1.00;;;20.10;59.20;;;;;;5113234;28;20054;-70
2022/06/14 01:09:13;;;;;;;1.58;0.98;;;20.10;59.60;;;;;;5112042;28;20390;-70
2022/06/14 01:11:44;;;;;;;2.35;1.02;;;20.20;59.70;;;;;;5111916;28;20055;-69
2022/06/14 01:14:11;;;;;;;1.63;1.10;;;20.20;55.80;;;;;;5111504;28;20067;-70
2022/06/14 01:16:38;;;;;;;2.08;1.02;;;19.10;59.20;;;;;;5111489;28;20594;-70
2022/06/14 01:19:06;;;;;;;2.63;1.20;;;20.70;60.00;;;;;;5111834;28;20071;-70
2022/06/14 01:21:33;;;;;;;2.03;1.20;;;20.20;55.80;;;;;;5110150;28;20052;-69
2022/06/14 01:24:01;;;;;;;2.28;1.25;;;21.40;61.00;;;;;;5111657;28;20048;-69
2022/06/14 01:26:27;;;;;;;1.55;1.00;;;19.30;58.90;;;;;;5112746;28;20377;-70
2022/06/14 01:28:55;;;;;;;3.25;1.10;;;20.10;58.60;;;;;;5112091;28;20139;-70
2022/06/14 01:31:23;;;;;;;2.53;1.15;;;20.00;58.70;;;;;;5111746;28;20083;-70
2022/06/14 01:33:51;;;;;;;1.83;0.93;;;20.10;55.70;;;;;;5111364;28;20474;-70
2022/06/14 01:36:21;;;;;;;2.53;1.13;;;19.80;57.90;;;;;;5111499;28;20486;-70
2022/06/14 01:38:49;;;;;;;2.83;1.20;;;20.10;55.70;;;;;;5109591;28;20059;-70
2022/06/14 01:41:27;;;;;;;1.52;1.00;;;20.00;55.60;;;;;;5112754;28;20093;-70
2022/06/14 01:44:04;;;;;;;1.48;1.00;;;19.90;59.30;;;;;;5102396;28;20056;-70
2022/06/14 01:46:32;;;;;;;1.88;1.00;;;20.10;55.70;;;;;;5091168;28;20413;-69
2022/06/14 01:51:59;;;;;;;2.92;1.40;;;19.80;59.10;;;;;;5091061;28;20060;-69
2022/06/14 01:54:28;;;;;;;2.28;1.27;;;20.00;55.70;;;;;;5091625;28;20047;-70
2022/06/14 01:57:08;;;;;;;2.25;1.10;;;20.20;59.30;;;;;;5073763;28;20062;-70
2022/06/14 01:59:41;;;;;;;2.47;1.20;;;20.00;55.70;;;;;;5090945;28;20127;-70
2022/06/14 02:02:09;;;;;;;1.85;1.08;;;19.90;59.40;;;;;;5101523;28;20135;-69
2022/06/14 02:04:39;;;;;;;2.00;1.10;;;20.10;60.20;;;;;;5111102;28;20052;-69
2022/06/14 02:07:16;;;;;;;1.85;1.10;;;20.80;60.10;;;;;;5110902;28;20052;-70
2022/06/14 02:09:48;;;;;;;1.83;1.10;;;20.00;55.70;;;;;;5111207;28;20147;-70
2022/06/14 02:12:18;;;;;;;2.42;1.02;;;19.90;55.70;;;;;;5108701;28;20044;-69
2022/06/14 02:14:48;;;;;;;2.60;1.20;;;19.90;55.70;;;;;;5109760;28;20043;-70
2022/06/14 02:17:17;;;;;;;1.52;1.10;;;19.90;55.70;;;;;;5110709;28;20135;-70
2022/06/14 02:19:46;;;;;;;2.10;1.00;;;19.80;58.90;;;;;;5110913;28;20054;-69
2022/06/14 02:22:14;;;;;;;1.95;1.00;;;19.90;55.70;;;;;;5110662;28;20050;-70
2022/06/14 02:24:43;;;;;;;2.55;1.10;;;20.10;60.20;;;;;;5110391;28;20055;-70
2022/06/14 02:27:12;;;;;;;2.58;1.23;;;19.90;55.70;;;;;;5109951;28;20057;-70
2022/06/14 02:29:42;;;;;;;1.95;1.17;;;19.90;60.00;;;;;;5090336;28;20215;-70
2022/06/14 02:32:13;;;;;;;1.50;1.00;;;19.50;59.30;;;;;;5090645;28;20135;-70
2022/06/14 02:34:42;;;;;;;2.17;1.27;;;19.80;55.70;;;;;;5089569;28;20127;-69
2022/06/14 02:37:10;;;;;;;1.88;1.20;;;20.70;60.30;;;;;;5090263;28;20524;-69
2022/06/14 02:39:38;;;;;;;2.35;1.05;;;19.80;55.70;;;;;;5090026;28;20052;-69
2022/06/14 02:42:07;;;;;;;2.60;1.30;;;19.80;55.80;;;;;;5091478;28;20055;-70
2022/06/14 02:44:36;;;;;;;3.20;1.55;;;19.80;55.70;;;;;;5120364;27;20123;-70
2022/06/14 02:47:06;;;;;;;3.67;1.27;;;20.90;60.20;;;;;;5090029;28;20058;-70
2022/06/14 02:49:35;;;;;;;1.92;1.13;;;19.80;55.70;;;;;;5089616;28;20048;-69
2022/06/14 02:52:05;;;;;;;2.03;1.10;;;20.10;59.60;;;;;;5090752;28;20047;-70
2022/06/14 02:54:33;;;;;;;3.05;1.17;;;19.40;59.60;;;;;;5089378;28;20063;-69
2022/06/14 02:57:01;;;;;;;1.95;1.00;;;19.80;60.20;;;;;;5089814;28;20056;-70
2022/06/14 02:59:30;;;;;;;1.70;1.05;;;19.70;59.00;;;;;;5089712;28;20131;-70
2022/06/14 03:01:59;;;;;;;1.92;1.13;;;19.70;59.70;;;;;;5100567;27;20054;-70
2022/06/14 03:04:29;;;;;;;2.00;1.25;;;19.70;55.70;;;;;;5108753;28;20598;-70
2022/06/14 03:06:58;;;;;;;2.70;1.20;;;19.80;55.90;;;;;;5109887;28;20051;-69
2022/06/14 03:09:27;;;;;;;1.20;0.90;;;19.40;59.40;;;;;;5111317;28;20067;-70
2022/06/14 03:12:01;;;;;;;1.60;1.00;;;19.70;55.80;;;;;;5109850;28;20047;-70
2022/06/14 03:14:31;;;;;;;2.03;1.10;;;19.70;55.80;;;;;;5109649;28;20525;-69
2022/06/14 03:17:02;;;;;;;2.65;1.25;;;19.50;59.80;;;;;;5108945;28;20055;-70
2022/06/14 03:19:34;;;;;;;2.55;1.42;;;19.70;55.80;;;;;;5089680;28;20144;-70
2022/06/14 03:22:06;;;;;;;2.25;1.30;;;19.70;59.20;;;;;;5089334;28;20506;-70
2022/06/14 03:24:36;;;;;;;1.83;1.00;;;19.70;58.90;;;;;;5090166;28;20497;-70
2022/06/14 03:27:07;;;;;;;2.83;1.50;;;19.30;58.60;;;;;;5088120;28;20079;-70
2022/06/14 03:29:38;;;;;;;2.58;1.20;;;19.70;55.80;;;;;;5088773;28;20460;-70
2022/06/14 03:32:07;;;;;;;2.08;1.17;;;19.70;59.10;;;;;;5088694;28;20074;-70
2022/06/14 03:34:38;;;;;;;1.23;0.90;;;19.70;55.80;;;;;;5089557;28;20050;-70
2022/06/14 03:37:05;;;;;;;1.63;1.00;;;19.70;60.10;;;;;;5089021;28;20051;-70
2022/06/14 03:39:32;;;;;;;3.13;1.30;;;19.60;55.80;;;;;;5088975;28;20082;-70
2022/06/14 03:41:59;;;;;;;1.52;1.13;;;19.30;59.20;;;;;;5088703;28;20066;-69
2022/06/14 03:44:27;;;;;;;1.92;1.20;;;20.30;60.00;;;;;;5107563;28;20143;-70
2022/06/14 03:47:14;;;;;;;2.83;1.10;;;19.60;55.70;;;;;;5108869;28;20585;-70
2022/06/14 03:49:44;;;;;;;2.78;1.30;;;19.60;55.70;;;;;;5109024;28;20716;-70
2022/06/14 03:52:16;;;;;;;2.00;1.30;;;18.80;59.40;;;;;;5093632;28;20470;-70
2022/06/14 03:54:48;;;;;;;2.20;1.00;;;19.60;55.90;;;;;;5087915;28;20043;-70
2022/06/14 03:57:21;;;;;;;2.47;1.20;;;19.60;55.80;;;;;;5088305;28;20048;-70
2022/06/14 04:00:13;;;;;;;1.15;1.00;;;19.50;59.20;;;;;;5088354;28;20138;-70
2022/06/14 04:03:04;;;;;;;1.80;1.08;;;19.60;55.80;;;;;;5104050;28;20051;-70
2022/06/14 04:05:40;;;;;;;1.40;1.20;;;19.20;58.80;;;;;;5108517;28;20055;-69
2022/06/14 04:08:14;;;;;;;3.03;1.17;;;19.40;59.60;;;;;;5106524;28;20542;-70
2022/06/14 04:10:42;;;;;;;2.80;1.20;;;19.60;55.90;;;;;;5108854;28;20574;-69
2022/06/14 04:13:14;;;;;;;2.20;1.17;;;19.50;59.90;;;;;;5107951;28;20054;-69
2022/06/14 04:15:43;;;;;;;1.20;0.95;;;19.60;55.90;;;;;;5108152;28;20078;-70
2022/06/14 04:18:36;;;;;;;2.25;1.50;;;19.50;59.20;;;;;;5107924;28;20399;-69
2022/06/14 04:21:10;;;;;;;1.90;1.10;;;19.60;55.90;;;;;;5108405;28;20058;-70
2022/06/14 04:23:40;;;;;;;1.83;1.10;;;19.40;59.80;;;;;;5108694;28;20218;-70
2022/06/14 04:26:09;;;;;;;1.55;1.10;;;18.60;57.90;;;;;;5087990;28;20071;-69
2022/06/14 04:28:40;;;;;;;1.67;1.00;;;19.40;59.80;;;;;;5088070;28;20458;-70
2022/06/14 04:31:12;;;;;;;2.40;1.00;;;19.60;55.80;;;;;;5089084;28;20040;-68
2022/06/14 04:33:41;;;;;;;3.70;1.30;;;19.60;60.40;;;;;;5116346;27;20553;-69
2022/06/14 04:36:10;;;;;;;2.60;1.10;;;19.50;58.60;;;;;;5129645;27;20526;-68
2022/06/14 04:38:39;;;;;;;1.50;1.02;;;19.60;55.70;;;;;;5129962;27;20485;-68
2022/06/14 04:41:08;;;;;;;1.52;1.10;;;19.80;59.90;;;;;;5108447;27;20048;-68
2022/06/14 04:43:39;;;;;;;1.98;1.10;;;19.70;59.60;;;;;;5099564;28;20086;-69
2022/06/14 04:46:07;;;;;;;2.05;1.20;;;19.70;58.60;;;;;;5108174;28;20105;-68
2022/06/14 04:48:36;;;;;;;2.25;1.23;;;19.40;59.40;;;;;;5108087;28;20147;-68
2022/06/14 04:51:06;;;;;;;2.70;1.30;;;19.50;55.70;;;;;;5108255;28;20059;-68
2022/06/14 04:53:36;;;;;;;2.33;1.20;;;19.50;55.70;;;;;;5107867;28;20143;-68
2022/06/14 04:56:05;;;;;;;1.30;1.00;;;19.60;55.30;;;;;;5107712;28;20043;-71
2022/06/14 04:58:36;;;;;;;1.88;1.00;;;19.50;55.70;;;;;;5093448;28;20142;-71
2022/06/14 05:01:07;;;;;;;1.83;1.00;;;19.50;55.70;;;;;;5088932;28;20052;-71
2022/06/14 05:03:36;;;;;;;2.28;1.13;;;19.50;59.10;;;;;;5107611;28;20063;-72
2022/06/14 05:06:05;;;;;;;1.45;1.10;;;19.50;55.60;;;;;;5108298;28;20055;-71
2022/06/14 05:08:35;;;;;;;3.22;1.20;;;19.70;59.40;;;;;;5108033;28;20051;-72
2022/06/14 05:11:05;;;;;;;2.22;1.17;;;20.00;60.50;;;;;;5107522;28;20086;-72
2022/06/14 05:13:37;;;;;;;1.73;1.10;;;19.40;59.00;;;;;;5107811;28;20048;-72
2022/06/14 05:16:06;;;;;;;2.05;1.17;;;19.60;58.40;;;;;;5088500;28;20048;-69
2022/06/14 05:18:36;;;;;;;1.48;1.05;;;20.80;61.20;;;;;;5070401;28;20054;-68
2022/06/14 05:21:04;;;;;;;2.92;1.20;;;19.60;59.40;;;;;;5087389;28;20060;-69
2022/06/14 05:23:34;;;;;;;2.78;1.20;;;20.50;59.90;;;;;;5087221;28;20066;-69
2022/06/14 05:26:04;;;;;;;2.33;1.20;;;19.60;59.30;;;;;;5087374;28;20056;-69
2022/06/14 05:28:34;;;;;;;4.93;1.30;;;18.40;58.70;;;;;;5087965;28;20080;-70
2022/06/14 05:31:06;;;;;;;2.58;1.35;;;18.50;58.90;;;;;;5090245;28;20122;-70
2022/06/14 05:33:37;;;;;;;6.78;1.40;;;19.50;55.40;;;;;;5087551;28;20075;-69
2022/06/14 05:36:08;;;;;;;3.53;1.60;;;19.60;58.40;;;;;;5087579;28;20132;-69
2022/06/14 05:38:39;;;;;;;5.18;1.55;;;19.70;59.60;;;;;;5088132;28;20052;-69
2022/06/14 05:41:07;;;;;;;3.10;1.30;;;18.60;59.80;;;;;;5089607;28;20134;-68
2022/06/14 05:43:35;;;;;;;3.63;1.73;;;19.70;55.50;;;;;;5099894;28;20059;-68
2022/06/14 05:46:06;;;;;;;4.22;1.63;;;18.70;58.70;;;;;;5109933;28;20048;-69
2022/06/14 05:48:35;;;;;;;3.90;1.42;;;19.80;55.20;;;;;;5100305;28;20642;-69
2022/06/14 05:51:02;;;;;;;4.32;1.60;;;20.10;59.20;;;;;;5099760;28;20083;-69
2022/06/14 05:53:32;;;;;;;3.20;1.33;;;20.00;55.00;;;;;;5112564;28;20067;-68
2022/06/14 05:56:05;;;;;;;4.72;1.60;;;20.10;54.80;;;;;;5111578;28;20417;-69
2022/06/14 05:58:33;;;;;;;4.45;1.38;;;20.40;58.40;;;;;;5111956;28;20079;-70
2022/06/14 06:01:02;;;;;;;3.25;1.30;;;20.30;54.40;;;;;;5111454;28;20058;-70
2022/06/14 06:03:31;;;;;;;2.58;1.58;;;20.50;58.80;;;;;;5111774;28;20058;-70
2022/06/14 06:06:00;;;;;;;2.20;1.27;;;20.50;54.00;;;;;;5103132;28;20127;-69
2022/06/14 06:08:30;;;;;;;2.63;1.30;;;20.10;57.40;;;;;;5111364;28;20047;-69
2022/06/14 06:10:59;;;;;;;3.88;1.40;;;20.80;53.80;;;;;;5111704;28;20448;-69
2022/06/14 06:13:28;;;;;;;1.67;1.20;;;20.90;58.40;;;;;;5112100;28;20406;-69
2022/06/14 06:15:57;;;;;;;5.13;1.50;;;21.30;57.10;;;;;;5110711;28;20047;-68
2022/06/14 06:18:25;;;;;;;3.47;1.30;;;21.00;53.30;;;;;;5111825;28;20048;-68
2022/06/14 06:20:54;;;;;;;2.60;1.20;;;21.10;53.20;;;;;;5111661;28;20052;-69
2022/06/14 06:23:23;;;;;;;3.45;1.30;;;21.10;57.10;;;;;;5091120;28;20095;-68
2022/06/14 06:25:53;;;;;;;3.53;1.20;;;20.40;57.10;;;;;;5094721;28;20630;-69
2022/06/14 06:28:23;;;;;;;3.65;1.35;;;22.20;57.40;;;;;;5108744;27;20066;-68
2022/06/14 06:30:52;;;;;;;3.63;1.23;;;21.40;52.70;;;;;;5109859;28;20094;-68
2022/06/14 06:33:19;;;;;;;3.50;1.45;;;21.50;52.60;;;;;;5111114;28;20054;-69
2022/06/14 06:35:49;;;;;;;2.13;1.10;;;21.60;52.60;;;;;;5111232;28;20134;-69
2022/06/14 06:38:20;;;;;;;2.97;1.30;;;21.70;52.50;;;;;;5103804;28;20482;-69
2022/06/14 06:43:32;;;;;;;2.45;1.20;;;21.70;52.40;;;;;;5100072;28;20136;-69
2022/06/14 06:46:00;;;;;;;5.22;1.20;;;21.80;52.40;;;;;;5110223;28;20051;-70
2022/06/14 06:48:30;;;;;;;5.53;1.50;;;21.90;52.30;;;;;;5111358;28;20054;-70
2022/06/14 06:50:58;;;;;;;3.55;1.45;;;21.90;56.80;;;;;;5109743;28;20410;-69
2022/06/14 06:53:25;;;;;;;2.30;1.05;;;22.00;52.20;;;;;;5109869;28;20059;-70
2022/06/14 06:55:54;;;;;;;2.53;1.13;;;21.80;56.40;;;;;;5095971;27;20051;-69
2022/06/14 06:58:24;;;;;;;3.17;1.23;;;22.20;56.80;;;;;;5109541;28;20130;-70
2022/06/14 07:00:51;;;;;;;2.88;1.40;;;22.00;56.30;;;;;;5107983;28;20130;-69
2022/06/14 07:03:23;;;;;;;2.78;1.33;;;22.20;52.10;;;;;;5109245;28;20130;-69
2022/06/14 07:05:51;;;;;;;3.58;1.30;;;22.60;56.90;;;;;;5110975;28;20044;-69
2022/06/14 07:08:20;;;;;;;1.92;1.10;;;22.30;56.50;;;;;;5110350;28;20497;-70
2022/06/14 07:10:49;;;;;;;2.05;1.10;;;22.10;55.80;;;;;;5108057;28;20078;-69
2022/06/14 07:13:18;;;;;;;3.28;1.40;;;22.50;56.30;;;;;;5089857;28;20147;-69
2022/06/14 07:15:46;;;;;;;2.88;1.40;;;22.50;52.00;;;;;;5088337;28;20082;-70
2022/06/14 07:18:17;;;;;;;2.88;1.17;;;22.60;52.00;;;;;;5087691;28;20127;-71
2022/06/14 07:20:57;;;;;;;5.65;1.85;;;22.60;55.90;;;;;;5088404;28;20048;-70
2022/06/14 07:23:28;;;;;;;3.13;1.33;;;22.60;52.00;;;;;;5088576;28;20486;-69
2022/06/14 07:26:00;;;;;;;2.30;1.30;;;23.40;56.40;;;;;;5096060;28;20413;-69
2022/06/14 07:28:32;;;;;;;2.63;1.35;;;22.90;55.40;;;;;;5108353;28;20058;-69
2022/06/14 07:31:00;;;;;;;2.33;1.30;;;24.10;57.40;;;;;;5108743;28;20151;-69
2022/06/14 07:33:27;;;;;;;3.95;1.40;;;22.60;51.90;;;;;;5110165;28;20130;-69
2022/06/14 07:35:57;;;;;;;2.28;1.20;;;22.70;52.00;;;;;;5108782;28;20055;-69
2022/06/14 07:38:25;;;;;;;4.43;1.50;;;22.60;56.40;;;;;;5108913;28;20062;-69
2022/06/14 07:40:55;;;;;;;2.67;1.40;;;22.50;55.70;;;;;;5110253;28;20047;-69
2022/06/14 07:43:25;;;;;;;3.55;1.48;;;22.80;56.50;;;;;;5114494;27;20101;-68
2022/06/14 07:45:52;;;;;;;3.03;1.35;;;22.70;56.00;;;;;;5128969;27;20391;-69
2022/06/14 07:48:21;;;;;;;2.78;1.45;;;22.70;56.50;;;;;;5130342;27;20134;-68
2022/06/14 07:50:50;;;;;;;3.70;1.60;;;22.70;51.90;;;;;;5130778;27;20055;-69
2022/06/14 07:53:19;;;;;;;3.22;1.40;;;22.70;55.20;;;;;;5129047;27;20057;-70
2022/06/14 07:55:47;;;;;;;3.90;1.60;;;22.80;51.80;;;;;;5107950;27;20054;-68
2022/06/14 07:58:18;;;;;;;4.38;1.50;;;22.80;55.80;;;;;;5090694;28;20067;-68
2022/06/14 08:03:32;;;;;;;3.42;1.52;;;22.70;51.70;;;;;;5097768;28;20070;-68
2022/06/14 08:05:58;;;;;;;4.85;1.30;;;22.80;51.70;;;;;;5098336;28;20051;-68
2022/06/14 08:08:27;;;;;;;4.22;1.20;;;22.80;51.70;;;;;;5095319;28;20044;-69
2022/06/14 08:10:57;;;;;;;5.18;1.13;;;22.80;51.60;;;;;;5096261;28;20422;-68
2022/06/14 08:13:25;;;;;;;3.95;1.30;;;22.70;55.20;;;;;;5087797;28;20067;-68
2022/06/14 08:15:53;;;;;;;3.13;1.20;;;22.70;55.10;;;;;;5096731;28;20119;-68
2022/06/14 08:18:22;;;;;;;2.72;1.30;;;22.80;51.50;;;;;;5100577;28;20051;-68
2022/06/14 08:20:50;;;;;;;3.67;1.38;;;22.80;51.50;;;;;;5109015;28;20490;-68
2022/06/14 08:23:25;;;;;;;1.90;1.10;;;22.90;51.50;;;;;;5102111;27;20127;-68
2022/06/14 08:25:55;;;;;;;4.30;1.30;;;22.90;55.30;;;;;;5098989;28;20047;-68
2022/06/14 08:28:24;;;;;;;2.28;1.25;;;23.60;56.10;;;;;;5096889;28;20389;-69
2022/06/14 08:30:53;;;;;;;4.32;1.40;;;22.60;55.40;;;;;;5098043;28;20051;-68
2022/06/14 08:33:22;;;;;;;3.60;1.33;;;22.80;51.50;;;;;;5100243;28;20071;-68
2022/06/14 08:35:51;;;;;;;2.33;1.27;;;22.80;51.50;;;;;;5096796;28;20127;-68
2022/06/14 08:38:18;;;;;;;5.40;1.30;;;22.80;51.50;;;;;;5097996;28;20043;-68
2022/06/14 08:41:01;;;;;;;3.00;1.40;;;22.90;51.50;;;;;;5099463;28;20051;-69
2022/06/14 08:43:30;;;;;;;2.83;1.30;;;22.90;51.50;;;;;;5107196;28;20054;-69
2022/06/14 08:46:17;;;;;;;2.50;1.25;;;23.10;55.80;;;;;;5108074;28;20054;-69
2022/06/14 08:48:48;;;;;;;2.05;1.20;;;23.00;51.60;;;;;;5107707;28;20048;-71
2022/06/14 08:51:15;;;;;;;1.90;1.15;;;23.00;51.50;;;;;;5093851;28;20048;-71
2022/06/14 08:57:11;;;;;;;4.55;1.70;;;23.30;55.80;;;;;;5008266;28;20050;-70
2022/06/14 09:00:06;;;;;;;6.05;1.63;;;23.10;55.10;;;;;;5086704;28;20055;-70
2022/06/14 09:03:03;;;;;;;3.65;1.33;;;23.00;54.10;;;;;;5030224;28;20058;-70
2022/06/14 09:05:58;;;;;;;5.15;1.40;;;23.00;55.70;;;;;;5088264;28;20044;-69
2022/06/14 09:08:54;;;;;;;3.97;1.42;;;22.90;50.30;;;;;;5087303;28;20060;-70
2022/06/14 09:11:54;;;;;;;6.40;1.60;;;23.40;55.00;;;;;;5087692;28;20048;-70
2022/06/14 09:14:58;;;;;;;7.63;1.88;;;23.30;54.00;;;;;;5097179;28;20044;-71
2022/06/14 09:17:51;;;;;;;6.63;1.60;;;23.00;50.50;;;;;;5103737;28;20047;-69
2022/06/14 09:20:26;;;;;;;4.60;1.40;;;22.80;54.30;;;;;;5087058;28;20067;-70
2022/06/14 09:22:57;;;;;;;5.07;1.60;;;22.80;50.00;;;;;;5108792;28;20051;-69
2022/06/14 09:25:32;;;;;;;7.65;1.73;;;22.80;50.20;;;;;;5111813;28;20047;-69
2022/06/14 09:28:20;;;;;;;4.40;1.50;;;22.90;54.70;;;;;;5111787;28;20497;-71
2022/06/14 09:31:01;;;;;;;7.85;1.52;;;22.60;55.20;;;;;;5111459;28;20134;-70
2022/06/14 09:33:41;;;;;;;8.55;1.75;;;22.40;53.70;;;;;;5097840;28;20405;-70
2022/06/14 09:36:38;;;;;;;4.60;1.73;;;22.90;52.50;;;;;;5091692;28;20074;-69
2022/06/14 09:39:27;;;;;;;4.47;1.30;;;22.60;50.20;;;;;;5112756;28;20048;-68
2022/06/14 09:42:21;;;;;;;6.25;1.58;;;22.60;54.90;;;;;;5109118;28;20059;-70
2022/06/14 09:45:20;;;;;;;2.38;1.20;;;21.90;53.80;;;;;;5095876;28;20485;-71
2022/06/14 09:48:07;;;;;;;4.15;1.20;;;22.40;54.90;;;;;;5114057;28;20050;-70
2022/06/14 09:51:00;;;;;;;4.10;1.45;;;22.60;51.10;;;;;;5112865;28;20046;-70
2022/06/14 09:53:56;;;;;;;6.10;1.20;;;22.60;50.50;;;;;;5111122;28;20051;-70
2022/06/14 09:56:39;;;;;;;4.97;1.35;;;22.70;53.10;;;;;;5111268;28;20052;-70
2022/06/14 09:59:25;;;;;;;4.90;1.50;;;22.60;50.60;;;;;;5103888;28;20056;-69
2022/06/14 10:01:56;;;;;;;3.08;1.48;;;22.60;50.70;;;;;;5096480;28;20058;-68
2022/06/14 10:04:41;;;;;;;1.42;1.10;;;22.60;55.30;;;;;;5105166;28;20066;-69
2022/06/14 10:07:53;;;;;;;2.25;1.30;;;21.90;54.40;;;;;;5096457;28;20040;-69
2022/06/14 10:10:28;;;;;;;2.38;1.30;;;22.40;55.40;;;;;;5011834;28;20057;-71
2022/06/14 10:13:10;;;;;;;5.97;1.35;;;22.40;51.00;;;;;;5027100;28;20132;-68
2022/06/14 10:15:41;;;;;;;3.30;1.40;;;22.40;51.00;;;;;;5072498;28;20036;-69
2022/06/14 10:18:15;;;;;;;3.35;1.30;;;22.40;51.10;;;;;;5099769;28;20058;-69
2022/06/14 10:20:52;;;;;;;3.13;1.30;;;22.40;51.00;;;;;;5101315;28;20074;-69
2022/06/14 10:23:46;;;;;;;2.92;1.20;;;21.60;54.30;;;;;;5091004;28;20123;-69
2022/06/14 10:29:14;;;;;;;2.58;1.10;;;22.50;51.20;;;;;;5090052;28;20043;-69
2022/06/14 10:31:47;;;;;;;3.78;1.30;;;22.40;50.90;;;;;;5104502;28;20044;-69
2022/06/14 10:34:15;;;;;;;4.32;1.10;;;22.30;54.70;;;;;;5102362;28;20050;-69
2022/06/14 10:36:53;;;;;;;7.10;1.20;;;22.50;51.30;;;;;;5100775;28;20046;-70
2022/06/14 10:39:50;;;;;;;2.28;1.15;;;22.60;55.00;;;;;;5111880;28;20048;-70
2022/06/14 10:42:18;;;;;;;4.25;1.33;;;22.40;55.60;;;;;;5094774;27;20062;-69
2022/06/14 10:44:51;;;;;;;2.65;1.10;;;22.50;51.30;;;;;;5130402;27;20622;-69
2022/06/14 10:47:25;;;;;;;3.45;1.60;;;22.50;55.80;;;;;;5114453;27;20044;-73
2022/06/14 10:50:25;;;;;;;4.77;1.30;;;22.40;54.70;;;;;;5100630;28;20054;-69
2022/06/14 10:53:00;;;;;;;3.63;1.23;;;23.20;55.60;;;;;;5088894;28;20060;-69
2022/06/14 10:55:43;;;;;;;3.42;1.40;;;22.40;55.20;;;;;;5109706;28;20062;-67
2022/06/14 10:58:22;;;;;;;3.45;1.20;;;22.50;55.90;;;;;;5109843;28;20055;-69
2022/06/14 11:00:50;;;;;;;11.98;1.50;;;22.10;55.40;;;;;;5109954;28;20409;-69
2022/06/14 11:03:28;;;;;;;6.28;1.55;;;22.30;55.40;;;;;;5109290;28;20057;-68
2022/06/14 11:06:17;;;;;;;3.55;1.20;;;22.30;51.80;;;;;;5109776;28;20508;-68
2022/06/14 11:08:49;;;;;;;3.65;1.20;;;22.30;51.90;;;;;;5093033;28;20058;-69
2022/06/14 11:11:37;;;;;;;5.70;1.40;;;22.30;52.00;;;;;;5111189;27;20058;-69
2022/06/14 11:14:08;;;;;;;3.47;1.35;;;22.50;56.10;;;;;;5109862;28;20059;-69
2022/06/14 11:16:44;;;;;;;2.38;1.00;;;21.50;55.30;;;;;;5109361;28;20089;-69
2022/06/14 11:19:35;;;;;;;5.03;1.30;;;22.30;51.60;;;;;;5109737;28;20414;-68
2022/06/14 11:22:29;;;;;;;4.93;1.30;;;22.30;51.60;;;;;;5109537;28;20074;-70
2022/06/14 11:25:00;;;;;;;4.85;1.20;;;22.30;54.60;;;;;;5109454;28;20052;-68
2022/06/14 11:27:32;;;;;;;2.58;1.10;;;22.30;51.80;;;;;;5109193;28;20050;-69
2022/06/14 11:30:07;;;;;;;2.50;1.10;;;21.30;55.20;;;;;;5109326;28;20059;-69
2022/06/14 11:32:40;;;;;;;4.63;1.40;;;22.30;54.60;;;;;;5109345;28;20059;-69
2022/06/14 11:35:11;;;;;;;2.13;1.20;;;22.30;51.70;;;;;;5109044;28;20047;-69
2022/06/14 11:37:48;;;;;;;2.65;1.20;;;22.30;51.70;;;;;;5110365;28;20122;-70
2022/06/14 11:40:16;;;;;;;2.65;1.13;;;19.70;54.40;;;;;;5110683;27;20414;-70
2022/06/14 11:42:51;;;;;;;2.97;1.35;;;22.40;51.80;;;;;;5108938;28;20130;-70
2022/06/14 11:45:26;;;;;;;2.92;1.20;;;21.40;55.10;;;;;;5110031;28;20048;-69
2022/06/14 11:47:56;;;;;;;3.33;1.23;;;22.20;55.00;;;;;;5113397;27;20044;-71
2022/06/14 11:50:27;;;;;;;2.83;1.30;;;22.30;51.90;;;;;;5108331;28;20138;-68
2022/06/14 11:53:03;;;;;;;3.47;1.00;;;22.30;52.00;;;;;;5107244;28;20399;-68
2022/06/14 11:55:34;;;;;;;2.30;1.20;;;22.30;52.10;;;;;;5107367;28;20054;-68
2022/06/14 11:58:09;;;;;;;1.80;1.15;;;22.30;52.20;;;;;;5108610;28;20047;-69
2022/06/14 12:00:38;;;;;;;;;;;22.30;52.20;;;;;;5109307;28;20046;-70
2022/06/14 12:03:10;;;;;;;3.63;1.00;;;22.20;52.20;;;;;;5106518;28;19929;-70
2022/06/14 12:05:42;;;;;;;3.28;1.17;;;22.00;52.30;;;;;;5109404;28;20047;-69
2022/06/14 12:08:44;;;;;;;1.98;1.10;;;22.30;52.50;;;;;;5109644;28;20050;-69
2022/06/14 12:11:17;;;;;;;2.95;1.10;;;22.20;52.40;;;;;;5108651;28;20060;-69
2022/06/14 12:14:06;;;;;;;2.20;1.15;;;22.20;52.40;;;;;;5108450;28;20060;-69
2022/06/14 12:16:36;;;;;;;5.30;1.35;;;21.40;56.00;;;;;;5107968;28;20057;-69
2022/06/14 12:19:07;;;;;;;2.72;1.05;;;22.20;52.50;;;;;;5092826;28;20438;-69
2022/06/14 12:21:38;;;;;;;2.10;1.10;;;22.20;56.30;;;;;;5109959;28;20408;-69
2022/06/14 12:24:06;;;;;;;4.32;1.10;;;22.20;52.50;;;;;;5108184;28;20468;-69
2022/06/14 12:26:36;;;;;;;3.47;1.10;;;22.40;56.20;;;;;;5109482;28;20044;-69
2022/06/14 12:29:09;;;;;;;3.20;1.15;;;22.20;52.50;;;;;;5108315;28;20047;-69
2022/06/14 12:31:42;;;;;;;2.95;1.27;;;21.50;56.20;;;;;;5105412;28;20054;-69
2022/06/14 12:34:13;;;;;;;2.20;1.20;;;23.40;57.20;;;;;;5087555;28;20138;-69
2022/06/14 12:36:43;;;;;;;3.55;1.40;;;22.80;56.50;;;;;;5087887;28;20052;-69
2022/06/14 12:39:13;;;;;;;3.33;0.90;;;22.20;56.70;;;;;;5090308;28;20071;-69
2022/06/14 12:41:42;;;;;;;3.05;1.10;;;22.00;56.70;;;;;;5107728;28;20529;-69
2022/06/14 12:44:34;;;;;;;3.58;1.10;;;22.20;56.30;;;;;;5108978;28;20145;-69
2022/06/14 12:47:02;;;;;;;3.22;1.13;;;22.20;56.00;;;;;;5102856;28;20047;-69
2022/06/14 12:49:32;;;;;;;1.80;1.00;;;22.20;52.60;;;;;;5108376;28;20440;-69
2022/06/14 12:52:01;;;;;;;1.60;1.13;;;21.00;55.20;;;;;;5109656;28;20489;-69
2022/06/14 12:54:35;;;;;;;4.22;1.10;;;23.00;56.40;;;;;;5108550;28;20414;-69
2022/06/14 12:57:03;;;;;;;;;;;22.00;52.50;;;;;;5109905;28;20401;-69
2022/06/14 12:59:32;;;;;;;2.20;0.98;;;22.10;52.60;;;;;;5111810;28;19920;-69
2022/06/14 13:02:05;;;;;;;1.80;1.10;;;22.10;52.70;;;;;;5111295;28;20135;-69
2022/06/14 13:04:34;;;;;;;3.33;1.00;;;22.10;55.60;;;;;;5111866;28;20052;-69
2022/06/14 13:07:07;;;;;;;2.60;0.90;;;22.10;56.40;;;;;;5092406;28;20054;-69
2022/06/14 13:09:39;;;;;;;1.52;1.02;;;20.80;55.90;;;;;;5091886;28;20064;-69
2022/06/14 13:12:13;;;;;;;2.30;1.10;;;21.50;55.60;;;;;;5091665;28;20067;-69
2022/06/14 13:14:43;;;;;;;2.00;1.08;;;23.20;56.70;;;;;;5091608;28;20044;-69
2022/06/14 13:17:18;;;;;;;2.80;1.15;;;21.10;56.30;;;;;;5092132;28;20060;-69
2022/06/14 13:19:48;;;;;;;3.53;1.00;;;21.20;55.70;;;;;;5091780;28;20143;-69
2022/06/14 13:22:22;;;;;;;3.83;1.27;;;22.30;57.50;;;;;;5097007;28;20048;-69
2022/06/14 13:24:59;;;;;;;2.05;1.00;;;22.20;52.50;;;;;;5111819;28;20474;-69
2022/06/14 13:27:29;;;;;;;1.33;1.02;;;22.20;52.50;;;;;;5111744;28;20139;-69
2022/06/14 13:30:04;;;;;;;2.97;0.90;;;22.20;52.50;;;;;;5111683;28;20052;-69